Time;durP1;ratioP1;P1;durP2;ratioP2;P2;SDS_P1;SDS_P2;PMS_P1;PMS_P2;Temp;Humidity;BMP_temperature;BMP_pressure;BME280_temperature;BME280_humidity;BME280_pressure;Samples;Min_cycle;Max_cycle;Signal;HPM_P1;HPM_P2
2023/01/28 00:00:56;;;;;;;5.85;4.72;;;1.20;99.90;;;;;;494264;240;27389;-73
2023/01/28 00:02:57;;;;;;;4.87;4.47;;;1.30;99.90;;;;;;493704;240;27410;-73
2023/01/28 00:04:58;;;;;;;5.12;4.60;;;1.20;99.90;;;;;;494275;240;27425;-73
2023/01/28 00:06:59;;;;;;;5.72;5.20;;;1.20;99.90;;;;;;493843;240;27497;-72
2023/01/28 00:09:01;;;;;;;6.12;5.47;;;1.20;99.90;;;;;;494239;240;27397;-73
2023/01/28 00:11:02;;;;;;;6.15;5.20;;;1.20;99.90;;;;;;493787;240;27450;-73
2023/01/28 00:13:03;;;;;;;5.53;4.80;;;1.20;99.90;;;;;;494244;240;27523;-74
2023/01/28 00:15:04;;;;;;;5.50;4.90;;;1.20;99.90;;;;;;493777;240;27385;-72
2023/01/28 00:17:06;;;;;;;5.70;5.10;;;1.20;99.90;;;;;;494275;240;27915;-73
2023/01/28 00:19:07;;;;;;;6.20;5.43;;;1.20;99.90;;;;;;493680;240;28730;-73
2023/01/28 00:21:08;;;;;;;8.45;5.05;;;1.20;99.90;;;;;;493964;240;27884;-72
2023/01/28 00:23:09;;;;;;;5.75;4.90;;;1.20;99.90;;;;;;493732;240;27912;-76
2023/01/28 00:25:11;;;;;;;6.72;5.30;;;1.20;99.90;;;;;;494216;240;27929;-72
2023/01/28 00:27:12;;;;;;;6.18;5.57;;;1.20;99.90;;;;;;493768;240;27485;-73
2023/01/28 00:29:13;;;;;;;5.43;4.90;;;1.20;99.90;;;;;;494211;236;27374;-73
2023/01/28 00:31:15;;;;;;;5.97;5.03;;;1.20;99.90;;;;;;493749;240;27409;-72
2023/01/28 00:33:16;;;;;;;5.90;5.05;;;1.30;99.90;;;;;;494233;240;27382;-73
2023/01/28 00:35:17;;;;;;;8.32;5.03;;;1.20;99.90;;;;;;493701;240;27410;-72
2023/01/28 00:37:18;;;;;;;6.10;5.25;;;1.20;99.90;;;;;;494242;240;27409;-73
2023/01/28 00:39:19;;;;;;;5.22;4.72;;;1.20;99.90;;;;;;493723;241;27449;-73
2023/01/28 00:41:21;;;;;;;6.15;5.55;;;1.30;99.90;;;;;;494197;240;27417;-72
2023/01/28 00:43:22;;;;;;;7.80;6.32;;;1.20;99.90;;;;;;493786;240;27425;-74
2023/01/28 00:45:23;;;;;;;6.95;5.50;;;1.30;99.90;;;;;;494180;240;27385;-72
2023/01/28 00:47:24;;;;;;;6.57;5.60;;;1.20;99.90;;;;;;493777;240;27906;-75
2023/01/28 00:49:26;;;;;;;6.05;5.45;;;1.20;99.90;;;;;;494225;240;28015;-75
2023/01/28 00:51:27;;;;;;;6.20;5.53;;;1.20;99.90;;;;;;493786;240;28004;-75
2023/01/28 00:53:28;;;;;;;6.22;5.00;;;1.20;99.90;;;;;;494243;240;27975;-77
2023/01/28 00:55:29;;;;;;;6.12;5.40;;;1.20;99.90;;;;;;493739;240;27527;-75
2023/01/28 00:57:31;;;;;;;8.02;5.75;;;1.20;99.90;;;;;;494292;240;27405;-76
2023/01/28 00:59:32;;;;;;;7.20;5.12;;;1.30;99.90;;;;;;493748;240;27434;-75
2023/01/28 01:01:33;;;;;;;6.55;5.72;;;1.20;99.90;;;;;;494225;240;27499;-74
2023/01/28 01:03:34;;;;;;;7.47;5.78;;;1.20;99.90;;;;;;493789;240;27413;-75
2023/01/28 01:05:36;;;;;;;6.20;5.60;;;1.20;99.90;;;;;;494275;240;27500;-75
2023/01/28 01:07:43;;;;;;;6.40;5.45;;;1.20;99.90;;;;;;493762;240;27429;-76
2023/01/28 01:09:44;;;;;;;7.50;5.65;;;1.30;99.90;;;;;;494256;240;27388;-75
2023/01/28 01:11:45;;;;;;;8.25;5.53;;;1.30;99.90;;;;;;493761;240;27494;-75
2023/01/28 01:13:47;;;;;;;6.75;5.20;;;1.20;99.90;;;;;;494283;240;27376;-74
2023/01/28 01:15:48;;;;;;;7.07;6.10;;;1.20;99.90;;;;;;493823;240;27939;-75
2023/01/28 01:17:49;;;;;;;7.47;6.32;;;1.20;99.90;;;;;;494222;240;27984;-76
2023/01/28 01:19:50;;;;;;;5.53;5.03;;;1.10;99.90;;;;;;493803;240;27956;-75
2023/01/28 01:21:52;;;;;;;6.20;5.45;;;1.10;99.90;;;;;;494307;240;27892;-76
2023/01/28 01:23:53;;;;;;;6.60;5.53;;;1.20;99.90;;;;;;493811;241;27371;-75
2023/01/28 01:25:54;;;;;;;5.82;5.20;;;1.20;99.90;;;;;;494284;240;27392;-75
2023/01/28 01:27:55;;;;;;;6.32;5.62;;;1.20;99.90;;;;;;493796;240;27489;-76
2023/01/28 01:29:57;;;;;;;6.12;5.53;;;1.20;99.90;;;;;;494284;240;27357;-75
2023/01/28 01:31:58;;;;;;;5.90;5.22;;;1.20;99.90;;;;;;493767;240;27407;-76
2023/01/28 01:33:59;;;;;;;5.35;4.85;;;1.10;99.90;;;;;;494229;240;27425;-74
2023/01/28 01:36:00;;;;;;;6.28;5.65;;;1.20;99.90;;;;;;493699;240;27474;-75
2023/01/28 01:38:02;;;;;;;5.97;5.37;;;1.20;99.90;;;;;;494268;240;27401;-75
2023/01/28 01:40:03;;;;;;;5.90;5.20;;;1.20;99.90;;;;;;493785;240;27851;-74
2023/01/28 01:42:04;;;;;;;6.80;5.72;;;1.10;99.90;;;;;;494250;240;27901;-75
2023/01/28 01:44:05;;;;;;;6.90;5.53;;;1.10;99.90;;;;;;493725;240;28883;-75
2023/01/28 01:46:07;;;;;;;6.68;5.68;;;1.10;99.90;;;;;;494272;240;27921;-75
2023/01/28 01:48:08;;;;;;;6.30;5.70;;;1.20;99.90;;;;;;493772;241;27406;-76
2023/01/28 01:50:09;;;;;;;5.97;4.90;;;1.20;99.90;;;;;;494256;240;27488;-75
2023/01/28 01:52:11;;;;;;;5.50;5.00;;;1.10;99.90;;;;;;493770;240;27497;-75
2023/01/28 01:54:12;;;;;;;6.57;5.93;;;1.10;99.90;;;;;;494218;240;27366;-74
2023/01/28 01:56:13;;;;;;;6.62;5.75;;;1.10;99.90;;;;;;493716;240;27406;-75
2023/01/28 01:58:14;;;;;;;7.05;5.53;;;1.10;99.90;;;;;;494272;240;27424;-76
2023/01/28 02:00:15;;;;;;;8.40;5.32;;;1.10;99.90;;;;;;493756;240;27398;-75
2023/01/28 02:02:17;;;;;;;6.93;5.97;;;1.10;99.90;;;;;;494194;240;27586;-75
2023/01/28 02:04:18;;;;;;;7.20;5.68;;;1.10;99.90;;;;;;493734;240;27461;-75
2023/01/28 02:06:19;;;;;;;7.12;5.55;;;1.10;99.90;;;;;;494297;237;27421;-75
2023/01/28 02:08:20;;;;;;;5.35;4.85;;;1.10;99.90;;;;;;493785;240;27418;-76
2023/01/28 02:10:22;;;;;;;7.62;6.15;;;1.10;99.90;;;;;;494215;240;27849;-75
2023/01/28 02:12:23;;;;;;;6.78;5.78;;;1.10;99.90;;;;;;493774;241;27890;-75
2023/01/28 02:14:24;;;;;;;6.43;5.55;;;1.10;99.90;;;;;;494207;240;27850;-75
2023/01/28 02:16:25;;;;;;;5.62;5.03;;;1.10;99.90;;;;;;493767;240;27411;-74
2023/01/28 02:18:27;;;;;;;8.38;5.57;;;1.10;99.90;;;;;;494256;240;27421;-76
2023/01/28 02:20:28;;;;;;;5.93;5.32;;;1.10;99.90;;;;;;493785;240;27379;-75
2023/01/28 02:22:29;;;;;;;6.07;5.47;;;1.20;99.90;;;;;;494223;240;27424;-75
2023/01/28 02:24:30;;;;;;;6.47;5.75;;;1.20;99.90;;;;;;493782;240;27371;-75
2023/01/28 02:26:32;;;;;;;6.47;5.35;;;1.20;99.90;;;;;;494254;240;27406;-75
2023/01/28 02:28:33;;;;;;;5.30;4.80;;;1.20;99.90;;;;;;493777;240;27422;-76
2023/01/28 02:30:34;;;;;;;7.85;6.00;;;1.20;99.90;;;;;;494292;240;27365;-74
2023/01/28 02:32:35;;;;;;;7.40;6.03;;;1.10;99.90;;;;;;493758;240;27485;-75
2023/01/28 02:34:37;;;;;;;8.63;6.10;;;1.00;99.90;;;;;;494299;240;27405;-75
2023/01/28 02:36:38;;;;;;;8.32;6.00;;;1.00;99.90;;;;;;493812;240;27413;-75
2023/01/28 02:38:39;;;;;;;7.90;5.75;;;1.00;99.90;;;;;;494254;240;27881;-77
2023/01/28 02:41:00;;;;;;;9.88;6.68;;;1.00;99.90;;;;;;493805;240;27931;-75
2023/01/28 02:42:42;;;;;;;8.73;6.35;;;0.90;99.90;;;;;;492640;240;27919;-75
2023/01/28 02:44:43;;;;;;;10.25;7.20;;;1.00;99.90;;;;;;493770;240;27849;-75
2023/01/28 02:49:04;;;;;;;7.00;6.20;;;1.00;99.90;;;;;;493758;241;27541;-75
2023/01/28 02:51:05;;;;;;;8.57;6.85;;;1.00;99.90;;;;;;494257;240;27373;-75
2023/01/28 02:55:26;;;;;;;6.87;6.18;;;1.00;99.90;;;;;;494266;240;29098;-75
2023/01/28 02:57:27;;;;;;;9.35;6.57;;;0.90;99.90;;;;;;493778;240;27959;-74
2023/01/28 02:59:33;;;;;;;9.75;6.25;;;0.90;99.90;;;;;;494189;240;27393;-75
2023/01/28 03:01:33;;;;;;;7.80;6.20;;;1.00;99.90;;;;;;493674;241;27481;-75
2023/01/28 03:03:34;;;;;;;7.28;6.28;;;0.90;99.90;;;;;;494255;240;27421;-79
2023/01/28 03:05:35;;;;;;;6.50;5.82;;;0.90;99.90;;;;;;493737;240;27425;-75
2023/01/28 03:07:36;;;;;;;8.48;6.75;;;0.90;99.90;;;;;;494257;240;27420;-75
2023/01/28 03:09:38;;;;;;;7.65;6.37;;;0.90;99.90;;;;;;493719;240;27387;-75
2023/01/28 03:37:15;;;;;;;6.18;5.32;;;0.90;99.90;;;;;;493759;241;27902;-75
2023/01/28 03:39:16;;;;;;;7.43;5.70;;;0.90;99.90;;;;;;494253;240;27854;-75
2023/01/28 03:41:18;;;;;;;9.63;5.30;;;0.90;99.90;;;;;;493786;240;27897;-74
2023/01/28 03:43:19;;;;;;;6.00;5.40;;;0.90;99.90;;;;;;494248;240;27682;-74
2023/01/28 03:45:20;;;;;;;6.65;5.50;;;0.90;99.90;;;;;;493760;240;27410;-74
2023/01/28 03:47:21;;;;;;;8.07;5.03;;;0.80;99.90;;;;;;494251;240;27495;-76
2023/01/28 03:49:23;;;;;;;10.25;6.07;;;0.80;99.90;;;;;;493777;240;27447;-75
2023/01/28 03:51:24;;;;;;;6.30;5.10;;;0.90;99.90;;;;;;494259;240;27401;-75
2023/01/28 03:53:25;;;;;;;6.70;5.30;;;0.80;99.90;;;;;;493752;240;27489;-75
2023/01/28 03:55:26;;;;;;;7.55;5.43;;;0.80;99.90;;;;;;494253;240;27504;-75
2023/01/28 03:57:30;;;;;;;5.53;4.87;;;0.80;99.90;;;;;;493782;241;27498;-75
2023/01/28 03:59:29;;;;;;;5.70;4.75;;;0.80;99.90;;;;;;494114;240;27540;-75
2023/01/28 04:01:30;;;;;;;6.70;5.68;;;0.80;99.90;;;;;;493753;240;27430;-75
2023/01/28 04:03:31;;;;;;;6.93;5.97;;;0.80;99.90;;;;;;494205;240;28001;-75
2023/01/28 04:05:34;;;;;;;6.25;5.32;;;0.80;99.90;;;;;;493753;240;27844;-75
2023/01/28 04:07:34;;;;;;;6.72;5.85;;;0.80;99.90;;;;;;494234;240;27871;-74
2023/01/28 04:09:35;;;;;;;5.72;5.12;;;0.70;99.90;;;;;;493761;240;27828;-75
2023/01/28 04:11:36;;;;;;;6.20;5.03;;;0.80;99.90;;;;;;494285;240;27472;-75
2023/01/28 04:13:38;;;;;;;5.95;5.00;;;0.70;99.90;;;;;;493766;240;27450;-75
2023/01/28 04:15:39;;;;;;;5.87;5.22;;;0.80;99.90;;;;;;494208;240;27468;-75
2023/01/28 04:17:40;;;;;;;6.20;5.18;;;0.70;99.90;;;;;;493794;240;27421;-77
2023/01/28 04:19:41;;;;;;;5.43;4.93;;;0.80;99.90;;;;;;494225;240;27852;-75
2023/01/28 04:21:43;;;;;;;5.82;5.22;;;0.80;99.90;;;;;;493778;240;27417;-75
2023/01/28 04:23:44;;;;;;;7.25;5.30;;;0.70;99.90;;;;;;494255;240;27389;-75
2023/01/28 04:25:45;;;;;;;6.30;5.32;;;0.80;99.90;;;;;;493733;240;27418;-75
2023/01/28 04:27:46;;;;;;;5.70;5.20;;;0.80;99.90;;;;;;494278;240;27413;-77
2023/01/28 04:29:48;;;;;;;5.80;4.60;;;0.80;99.90;;;;;;493772;240;27403;-75
2023/01/28 04:31:49;;;;;;;6.53;5.32;;;0.80;99.90;;;;;;494248;240;27873;-75
2023/01/28 04:33:50;;;;;;;5.35;4.85;;;0.80;99.90;;;;;;493710;240;28813;-74
2023/01/28 04:35:51;;;;;;;5.65;4.90;;;0.80;99.90;;;;;;494212;240;28073;-75
2023/01/28 04:37:53;;;;;;;6.00;5.28;;;0.80;99.90;;;;;;493786;240;28026;-76
2023/01/28 04:39:54;;;;;;;6.43;5.80;;;0.80;99.90;;;;;;494244;240;27508;-75
2023/01/28 04:41:55;;;;;;;5.57;4.80;;;0.70;99.90;;;;;;493739;240;27402;-75
2023/01/28 04:43:56;;;;;;;5.57;5.07;;;0.70;99.90;;;;;;494173;240;27447;-75
2023/01/28 04:45:58;;;;;;;5.90;5.28;;;0.70;99.90;;;;;;493716;240;27418;-75
2023/01/28 04:47:59;;;;;;;5.62;5.10;;;0.70;99.90;;;;;;494141;240;27397;-76
2023/01/28 04:50:00;;;;;;;6.22;4.93;;;0.70;99.90;;;;;;493665;240;27525;-75
2023/01/28 04:52:01;;;;;;;6.05;4.47;;;0.80;99.90;;;;;;494123;240;27654;-75
2023/01/28 04:54:03;;;;;;;5.20;4.70;;;0.90;99.90;;;;;;493710;241;27419;-75
2023/01/28 04:56:04;;;;;;;5.30;4.03;;;0.80;99.90;;;;;;494208;240;27372;-75
2023/01/28 04:58:05;;;;;;;5.75;5.12;;;0.80;99.90;;;;;;493725;240;27418;-75
2023/01/28 05:00:06;;;;;;;8.82;5.70;;;0.80;99.90;;;;;;494214;240;27822;-75
2023/01/28 05:02:08;;;;;;;4.43;4.03;;;0.70;99.90;;;;;;493702;240;27898;-75
2023/01/28 05:04:09;;;;;;;5.97;5.10;;;0.70;99.90;;;;;;494226;240;28607;-75
2023/01/28 05:06:10;;;;;;;7.05;5.12;;;0.80;99.90;;;;;;493783;240;27885;-75
2023/01/28 05:08:11;;;;;;;4.53;4.15;;;0.70;99.90;;;;;;494219;240;27401;-76
2023/01/28 05:10:13;;;;;;;5.97;5.12;;;0.70;99.90;;;;;;493750;241;27359;-74
2023/01/28 05:12:14;;;;;;;8.07;5.57;;;0.70;99.90;;;;;;494244;240;27460;-75
2023/01/28 05:14:15;;;;;;;5.75;5.15;;;0.70;99.90;;;;;;493743;241;27481;-75
2023/01/28 05:16:16;;;;;;;6.15;4.95;;;0.70;99.90;;;;;;494258;236;27374;-75
2023/01/28 05:18:18;;;;;;;5.57;5.05;;;0.70;99.90;;;;;;493730;240;27430;-76
2023/01/28 05:20:19;;;;;;;6.37;5.68;;;0.70;99.90;;;;;;494253;240;27379;-75
2023/01/28 05:22:20;;;;;;;5.80;5.22;;;0.60;99.90;;;;;;493782;240;27509;-75
2023/01/28 05:24:21;;;;;;;6.72;5.43;;;0.60;99.90;;;;;;494212;240;27397;-74
2023/01/28 05:26:23;;;;;;;5.87;4.97;;;0.70;99.90;;;;;;493781;240;27453;-74
2023/01/28 05:28:24;;;;;;;6.62;5.32;;;0.70;99.90;;;;;;494264;240;27401;-76
2023/01/28 05:30:25;;;;;;;5.68;4.75;;;0.70;99.90;;;;;;493744;241;28747;-74
2023/01/28 05:32:26;;;;;;;5.65;4.85;;;0.70;99.90;;;;;;494283;240;27979;-75
2023/01/28 05:34:28;;;;;;;5.45;4.95;;;0.70;99.90;;;;;;493761;241;28044;-75
2023/01/28 05:36:29;;;;;;;5.75;5.15;;;0.70;99.90;;;;;;494295;239;27931;-75
2023/01/28 05:38:30;;;;;;;6.55;4.93;;;0.70;99.90;;;;;;493783;240;27533;-75
2023/01/28 05:40:31;;;;;;;5.72;5.03;;;0.70;99.90;;;;;;494236;240;27469;-75
2023/01/28 05:42:33;;;;;;;5.35;4.57;;;0.70;99.90;;;;;;493777;240;27501;-75
2023/01/28 05:44:35;;;;;;;7.15;5.28;;;0.70;99.90;;;;;;494272;240;27404;-75
2023/01/28 05:46:35;;;;;;;6.90;5.22;;;0.60;99.90;;;;;;493719;241;27458;-75
2023/01/28 05:48:36;;;;;;;5.18;4.68;;;0.60;99.90;;;;;;494241;240;27495;-75
2023/01/28 05:50:38;;;;;;;6.35;5.28;;;0.60;99.90;;;;;;493756;240;27473;-75
2023/01/28 05:52:39;;;;;;;6.85;5.60;;;0.60;99.90;;;;;;494263;240;27404;-75
2023/01/28 05:54:40;;;;;;;8.77;5.65;;;0.70;99.90;;;;;;493787;240;27425;-75
2023/01/28 05:56:41;;;;;;;6.05;4.90;;;0.60;99.90;;;;;;494213;240;27405;-75
2023/01/28 05:58:43;;;;;;;5.12;4.62;;;0.50;99.90;;;;;;493785;240;27908;-75
2023/01/28 06:00:44;;;;;;;6.05;4.90;;;0.60;99.90;;;;;;494252;237;27924;-75
2023/01/28 06:02:45;;;;;;;6.53;5.85;;;0.70;99.90;;;;;;493768;240;27888;-76
2023/01/28 06:04:46;;;;;;;8.13;5.22;;;0.60;99.90;;;;;;494274;240;28597;-75
2023/01/28 06:06:48;;;;;;;6.22;5.20;;;0.60;99.90;;;;;;493740;240;27382;-74
2023/01/28 06:08:49;;;;;;;6.55;5.60;;;0.60;99.90;;;;;;494266;240;27476;-75
2023/01/28 06:10:50;;;;;;;6.30;5.55;;;0.60;99.90;;;;;;493789;240;27405;-75
2023/01/28 06:12:51;;;;;;;6.45;5.70;;;0.60;99.90;;;;;;494238;240;27406;-75
2023/01/28 06:14:53;;;;;;;6.05;5.28;;;0.60;99.90;;;;;;493777;241;27383;-75
2023/01/28 06:16:54;;;;;;;7.00;6.03;;;0.70;99.90;;;;;;494268;240;27382;-75
2023/01/28 06:18:55;;;;;;;6.20;5.15;;;0.60;99.90;;;;;;493767;240;27516;-75
2023/01/28 06:20:56;;;;;;;6.40;5.45;;;0.60;99.90;;;;;;494270;237;27369;-75
2023/01/28 06:22:58;;;;;;;6.43;5.75;;;0.60;99.90;;;;;;493756;240;27409;-75
2023/01/28 06:24:59;;;;;;;6.10;5.43;;;0.60;99.90;;;;;;494236;240;27513;-74
2023/01/28 06:27:00;;;;;;;6.35;5.30;;;0.60;99.90;;;;;;493748;241;27994;-75
2023/01/28 06:29:01;;;;;;;6.10;5.35;;;0.60;99.90;;;;;;494203;240;27905;-76
2023/01/28 06:31:03;;;;;;;6.85;5.70;;;0.60;99.90;;;;;;493751;240;27838;-75
2023/01/28 06:33:05;;;;;;;5.53;5.00;;;0.60;99.90;;;;;;494242;240;28011;-75
2023/01/28 06:35:05;;;;;;;7.50;5.80;;;0.60;99.90;;;;;;493697;240;27486;-75
2023/01/28 06:37:06;;;;;;;7.78;6.10;;;0.60;99.90;;;;;;494276;240;27487;-75
2023/01/28 06:39:08;;;;;;;9.05;6.85;;;0.50;99.90;;;;;;493743;240;27406;-75
2023/01/28 06:41:09;;;;;;;6.10;5.50;;;0.50;99.90;;;;;;494273;240;27372;-75
2023/01/28 06:43:10;;;;;;;6.82;6.12;;;0.60;99.90;;;;;;493812;240;27410;-75
2023/01/28 06:45:11;;;;;;;8.20;5.40;;;0.60;99.90;;;;;;494271;240;27370;-75
2023/01/28 06:47:14;;;;;;;8.45;6.22;;;0.50;99.90;;;;;;493812;240;27390;-75
2023/01/28 06:49:14;;;;;;;9.70;5.20;;;0.50;99.90;;;;;;494234;237;27491;-75
2023/01/28 06:51:15;;;;;;;6.87;5.80;;;0.50;99.90;;;;;;493772;240;27453;-75
2023/01/28 06:53:16;;;;;;;7.00;6.03;;;0.50;99.90;;;;;;494245;240;27415;-75
2023/01/28 06:55:18;;;;;;;9.30;5.97;;;0.50;99.90;;;;;;493733;237;27513;-75
2023/01/28 06:57:19;;;;;;;8.40;6.15;;;0.50;99.90;;;;;;494245;240;27933;-75
2023/01/28 06:59:20;;;;;;;8.30;5.70;;;0.50;99.90;;;;;;493784;240;28030;-76
2023/01/28 07:01:21;;;;;;;7.95;6.53;;;0.50;99.90;;;;;;494245;240;27946;-74
2023/01/28 07:03:23;;;;;;;9.38;6.43;;;0.50;99.90;;;;;;493772;240;27961;-76
2023/01/28 07:05:24;;;;;;;8.00;5.50;;;0.50;99.90;;;;;;494250;240;27472;-75
2023/01/28 07:07:25;;;;;;;6.25;5.18;;;0.50;99.90;;;;;;493732;240;27449;-75
2023/01/28 07:09:26;;;;;;;9.18;6.55;;;0.50;99.90;;;;;;494267;240;27506;-75
2023/01/28 07:11:28;;;;;;;7.50;6.15;;;0.50;99.90;;;;;;493723;240;27418;-74
2023/01/28 07:13:29;;;;;;;8.80;5.65;;;0.50;99.90;;;;;;494266;240;27487;-76
2023/01/28 07:15:30;;;;;;;6.68;5.95;;;0.50;99.90;;;;;;493785;240;27512;-75
2023/01/28 07:17:31;;;;;;;6.62;5.53;;;0.50;99.90;;;;;;494235;240;27381;-74
2023/01/28 07:19:33;;;;;;;7.45;5.20;;;0.50;99.90;;;;;;493777;240;27505;-76
2023/01/28 07:21:34;;;;;;;7.28;5.45;;;0.50;99.90;;;;;;494278;240;27598;-75
2023/01/28 07:23:35;;;;;;;6.95;5.72;;;0.50;99.90;;;;;;493738;241;27418;-75
2023/01/28 07:25:36;;;;;;;7.22;5.62;;;0.50;99.90;;;;;;494239;240;27853;-75
2023/01/28 07:27:38;;;;;;;6.60;5.80;;;0.40;99.90;;;;;;493740;241;27970;-74
2023/01/28 07:29:39;;;;;;;7.00;5.55;;;0.40;99.90;;;;;;494274;240;27884;-76
2023/01/28 07:31:40;;;;;;;6.78;5.97;;;0.50;99.90;;;;;;493781;240;27892;-74
2023/01/28 07:33:41;;;;;;;7.47;6.47;;;0.50;99.90;;;;;;494236;240;27496;-76
2023/01/28 07:35:43;;;;;;;7.78;5.87;;;0.40;99.90;;;;;;493764;241;27442;-75
2023/01/28 07:37:44;;;;;;;7.82;6.05;;;0.50;99.90;;;;;;494266;240;27400;-75
2023/01/28 07:39:45;;;;;;;6.40;5.60;;;0.40;99.90;;;;;;493715;241;27513;-76
2023/01/28 07:41:46;;;;;;;6.28;5.68;;;0.50;99.90;;;;;;494253;240;27369;-73
2023/01/28 07:43:48;;;;;;;6.70;6.00;;;0.40;99.90;;;;;;493734;240;27433;-74
2023/01/28 07:45:49;;;;;;;7.35;5.80;;;0.50;99.90;;;;;;494238;240;27520;-75
2023/01/28 07:47:50;;;;;;;8.48;6.65;;;0.50;99.90;;;;;;493795;240;27414;-74
2023/01/28 07:49:51;;;;;;;8.07;6.18;;;0.60;99.90;;;;;;494228;240;27413;-75
2023/01/28 07:51:53;;;;;;;6.97;6.10;;;0.50;99.90;;;;;;493783;241;27383;-74
2023/01/28 07:53:54;;;;;;;8.73;5.72;;;0.50;99.90;;;;;;494288;240;27888;-74
2023/01/28 07:55:55;;;;;;;9.52;6.60;;;0.50;99.90;;;;;;493776;240;27830;-73
2023/01/28 07:57:56;;;;;;;8.27;6.15;;;0.50;99.90;;;;;;494289;240;27888;-74
2023/01/28 07:59:58;;;;;;;10.68;6.22;;;0.50;99.90;;;;;;493523;241;27977;-75
2023/01/28 08:02:00;;;;;;;8.52;6.65;;;0.50;99.90;;;;;;494293;240;27456;-74
2023/01/28 08:04:00;;;;;;;9.10;5.70;;;0.50;99.90;;;;;;493758;241;27422;-76
2023/01/28 08:06:01;;;;;;;10.25;5.18;;;0.50;99.90;;;;;;494225;240;27464;-75
2023/01/28 08:08:03;;;;;;;8.50;5.85;;;0.50;99.90;;;;;;493756;240;27493;-75
2023/01/28 08:10:04;;;;;;;8.32;6.15;;;0.60;99.90;;;;;;494182;240;27838;-75
2023/01/28 08:12:05;;;;;;;8.55;5.93;;;0.50;99.90;;;;;;493772;240;27461;-75
2023/01/28 08:14:06;;;;;;;5.93;5.32;;;0.60;99.90;;;;;;494293;240;27486;-75
2023/01/28 08:16:08;;;;;;;7.20;5.80;;;0.60;99.90;;;;;;493763;240;27386;-75
2023/01/28 08:18:09;;;;;;;6.65;5.72;;;0.60;99.90;;;;;;494236;240;27402;-75
2023/01/28 08:20:11;;;;;;;6.82;6.12;;;0.50;99.90;;;;;;485688;240;27477;-75
2023/01/28 08:22:11;;;;;;;6.87;5.12;;;0.50;99.90;;;;;;499650;238;27839;-75
2023/01/28 08:24:13;;;;;;;9.50;5.95;;;0.60;99.90;;;;;;488505;243;28637;-77
2023/01/28 08:26:14;;;;;;;7.30;6.12;;;0.60;99.90;;;;;;499634;238;27824;-75
2023/01/28 08:28:15;;;;;;;8.05;5.68;;;0.60;99.90;;;;;;488483;243;27908;-75
2023/01/28 08:30:16;;;;;;;6.72;4.90;;;0.60;99.90;;;;;;499687;238;27409;-76
2023/01/28 08:32:18;;;;;;;8.40;6.10;;;0.70;99.90;;;;;;488538;243;27436;-76
2023/01/28 08:34:19;;;;;;;5.10;4.60;;;0.70;99.90;;;;;;499676;238;27482;-75
2023/01/28 08:36:20;;;;;;;8.50;5.00;;;0.70;99.90;;;;;;488579;243;27407;-75
2023/01/28 08:38:21;;;;;;;5.93;5.20;;;0.60;99.90;;;;;;499666;238;27415;-75
2023/01/28 08:40:23;;;;;;;6.40;5.45;;;0.60;99.90;;;;;;499641;238;27435;-76
2023/01/28 08:42:24;;;;;;;6.87;5.75;;;0.60;99.90;;;;;;488573;243;27364;-75
2023/01/28 08:44:25;;;;;;;6.22;5.07;;;0.60;99.90;;;;;;499668;238;27462;-76
2023/01/28 08:46:26;;;;;;;8.15;5.68;;;0.60;99.90;;;;;;488551;243;27384;-75
2023/01/28 08:48:28;;;;;;;5.87;5.22;;;0.60;99.90;;;;;;499686;238;27455;-75
2023/01/28 08:50:31;;;;;;;8.80;5.70;;;0.70;99.90;;;;;;488534;243;27912;-76
2023/01/28 08:52:30;;;;;;;6.07;5.22;;;0.60;99.90;;;;;;499492;238;27896;-75
2023/01/28 08:54:31;;;;;;;6.80;5.47;;;0.60;99.90;;;;;;488560;243;27886;-75
2023/01/28 08:56:33;;;;;;;7.82;5.20;;;0.60;99.90;;;;;;499655;238;27931;-75
2023/01/28 08:58:34;;;;;;;5.70;5.20;;;0.70;99.90;;;;;;488471;243;27448;-75
2023/01/28 09:00:35;;;;;;;7.55;5.85;;;0.70;99.90;;;;;;499683;238;27463;-76
2023/01/28 09:02:36;;;;;;;6.32;5.03;;;0.80;99.90;;;;;;488573;243;27417;-75
2023/01/28 09:04:38;;;;;;;5.72;5.18;;;0.70;99.90;;;;;;499638;238;27491;-75
2023/01/28 09:06:39;;;;;;;8.88;5.05;;;0.70;99.90;;;;;;488564;243;27470;-75
2023/01/28 09:08:40;;;;;;;7.12;5.62;;;0.70;99.90;;;;;;499693;238;27408;-75
2023/01/28 09:10:42;;;;;;;5.65;4.80;;;0.70;99.90;;;;;;488551;243;27423;-76
2023/01/28 09:12:43;;;;;;;12.88;11.12;;;0.90;99.90;;;;;;499709;238;27420;-75
2023/01/28 09:14:44;;;;;;;11.20;10.13;;;0.80;99.90;;;;;;481497;246;28075;-75
2023/01/28 09:16:45;;;;;;;6.05;5.37;;;0.90;99.90;;;;;;499584;238;27392;-76
2023/01/28 09:18:47;;;;;;;6.75;5.70;;;0.70;99.90;;;;;;488560;243;27859;-75
2023/01/28 09:20:48;;;;;;;5.87;5.28;;;0.80;99.90;;;;;;499522;238;27999;-76
2023/01/28 09:22:49;;;;;;;6.43;5.72;;;0.80;99.90;;;;;;499697;238;27817;-75
2023/01/28 09:24:50;;;;;;;5.95;5.35;;;0.80;99.90;;;;;;488508;243;27899;-75
2023/01/28 09:26:52;;;;;;;5.57;5.07;;;0.80;99.90;;;;;;499706;238;27475;-76
2023/01/28 09:28:53;;;;;;;7.55;5.20;;;0.70;99.90;;;;;;487034;243;47037;-75
2023/01/28 09:30:56;;;;;;;5.65;5.03;;;0.70;99.90;;;;;;499693;238;27479;-76
2023/01/28 09:32:56;;;;;;;7.03;5.20;;;0.80;99.90;;;;;;488454;243;27435;-75
2023/01/28 09:34:57;;;;;;;7.75;5.55;;;0.90;99.90;;;;;;499637;238;27384;-75
2023/01/28 09:36:58;;;;;;;5.50;4.90;;;0.80;99.90;;;;;;488595;243;27441;-78
2023/01/28 09:38:59;;;;;;;7.55;5.65;;;0.90;99.90;;;;;;499732;238;27380;-75
2023/01/28 09:41:00;;;;;;;9.32;5.50;;;0.90;99.90;;;;;;488532;243;27419;-75
2023/01/28 09:43:02;;;;;;;6.07;4.80;;;0.70;99.90;;;;;;499736;238;27412;-75
2023/01/28 09:45:03;;;;;;;7.95;5.20;;;0.80;99.90;;;;;;488573;243;27403;-75
2023/01/28 09:47:04;;;;;;;6.78;5.20;;;0.70;99.90;;;;;;499698;238;27388;-77
2023/01/28 09:49:05;;;;;;;6.25;5.30;;;0.70;99.90;;;;;;488578;243;27836;-75
2023/01/28 09:51:07;;;;;;;5.65;5.15;;;0.70;99.90;;;;;;499714;238;27892;-75
2023/01/28 09:53:08;;;;;;;6.78;5.30;;;0.70;99.90;;;;;;488540;243;27799;-75
2023/01/28 09:55:09;;;;;;;7.62;5.68;;;0.80;99.90;;;;;;499729;238;27828;-75
2023/01/28 09:57:10;;;;;;;5.07;4.57;;;0.80;99.90;;;;;;488543;243;27978;-75
2023/01/28 09:59:12;;;;;;;5.80;5.30;;;0.90;99.90;;;;;;499641;238;27826;-75
2023/01/28 10:01:13;;;;;;;7.40;5.55;;;0.80;99.90;;;;;;488566;243;27420;-75
2023/01/28 10:03:14;;;;;;;4.90;4.50;;;0.80;99.90;;;;;;499684;238;27467;-77
2023/01/28 10:05:16;;;;;;;7.22;5.45;;;0.80;99.90;;;;;;488519;243;27879;-75
2023/01/28 10:07:17;;;;;;;5.97;5.37;;;0.80;99.90;;;;;;499687;238;27856;-75
2023/01/28 10:09:18;;;;;;;6.57;5.50;;;0.80;99.90;;;;;;488523;243;27815;-75
2023/01/28 10:11:19;;;;;;;7.65;5.50;;;0.80;99.90;;;;;;499660;238;27377;-75
2023/01/28 10:13:21;;;;;;;6.93;4.90;;;0.80;99.90;;;;;;488553;243;27442;-76
2023/01/28 10:15:22;;;;;;;4.80;4.30;;;0.80;99.90;;;;;;499643;238;27926;-75
2023/01/28 10:17:23;;;;;;;6.78;5.62;;;0.80;99.90;;;;;;488552;243;27968;-76
2023/01/28 10:19:26;;;;;;;6.95;5.45;;;0.80;99.90;;;;;;499689;238;28733;-76
2023/01/28 10:21:26;;;;;;;6.70;5.45;;;0.90;99.90;;;;;;488457;243;27902;-75
2023/01/28 10:23:27;;;;;;;5.47;4.97;;;0.90;99.90;;;;;;499704;238;27397;-75
2023/01/28 10:25:28;;;;;;;6.72;5.57;;;0.90;99.90;;;;;;488525;243;27376;-75
2023/01/28 10:27:29;;;;;;;5.90;5.25;;;0.90;99.90;;;;;;499682;238;27499;-76
2023/01/28 10:29:31;;;;;;;5.80;5.22;;;0.90;99.90;;;;;;488523;243;27416;-75
2023/01/28 10:31:32;;;;;;;6.18;5.57;;;0.90;99.90;;;;;;499670;238;27438;-75
2023/01/28 10:33:33;;;;;;;7.20;5.85;;;0.80;99.90;;;;;;488576;243;27583;-77
2023/01/28 10:35:34;;;;;;;5.97;5.35;;;0.80;99.90;;;;;;499691;238;27496;-75
2023/01/28 10:37:36;;;;;;;5.72;4.90;;;0.90;99.90;;;;;;488548;243;27419;-75
2023/01/28 10:39:37;;;;;;;7.37;5.57;;;1.00;99.90;;;;;;499700;238;27455;-75
2023/01/28 10:41:39;;;;;;;6.47;5.40;;;0.90;99.90;;;;;;488543;243;27860;-75
2023/01/28 10:43:39;;;;;;;6.20;5.60;;;0.90;99.90;;;;;;499627;238;27876;-75
2023/01/28 10:45:41;;;;;;;9.85;6.05;;;0.80;99.90;;;;;;486183;243;27897;-75
2023/01/28 10:47:42;;;;;;;6.50;5.80;;;0.90;99.90;;;;;;475121;250;27446;-74
2023/01/28 10:49:43;;;;;;;6.65;5.82;;;0.90;99.90;;;;;;478330;248;28017;-76
2023/01/28 10:51:45;;;;;;;5.65;5.15;;;0.80;99.90;;;;;;483376;244;28041;-75
2023/01/28 10:53:46;;;;;;;6.50;5.50;;;0.80;99.90;;;;;;483293;246;28013;-75
2023/01/28 10:55:47;;;;;;;7.25;5.43;;;1.00;99.90;;;;;;483367;246;27939;-75
2023/01/28 10:57:49;;;;;;;6.82;5.65;;;1.00;99.90;;;;;;483362;246;27596;-75
2023/01/28 10:59:50;;;;;;;7.30;5.47;;;1.00;99.90;;;;;;483324;246;27560;-75
2023/01/28 11:01:51;;;;;;;5.53;5.03;;;1.00;99.90;;;;;;483331;246;27550;-74
2023/01/28 11:03:52;;;;;;;6.15;5.55;;;0.90;99.90;;;;;;483376;246;27976;-75
2023/01/28 11:05:53;;;;;;;6.75;5.87;;;1.00;99.90;;;;;;483255;244;27570;-75
2023/01/28 11:07:55;;;;;;;5.55;5.05;;;0.90;99.90;;;;;;483341;246;27649;-75
2023/01/28 11:09:56;;;;;;;6.12;5.10;;;0.90;99.90;;;;;;483365;246;27528;-76